Time;durP1;ratioP1;P1;durP2;ratioP2;P2;SDS_P1;SDS_P2;PMS_P1;PMS_P2;Temp;Humidity;BMP_temperature;BMP_pressure;BME280_temperature;BME280_humidity;BME280_pressure;Samples;Min_cycle;Max_cycle;Signal;HPM_P1;HPM_P2
2022/08/12 00:44:43;;;;;;;4.38;2.75;;;;;;;21.17;42.70;101805.97;5031502;28;20508;-79
2022/08/12 00:47:11;;;;;;;4.85;2.40;;;;;;;21.13;43.01;101809.75;5030490;28;20144;-78
2022/08/12 00:49:38;;;;;;;9.70;2.70;;;;;;;21.06;43.02;101802.94;5031460;28;20040;-79
2022/08/12 00:52:06;;;;;;;3.90;2.40;;;;;;;21.06;43.24;101811.03;5028803;28;20500;-79
2022/08/12 00:54:42;;;;;;;9.25;2.30;;;;;;;21.03;42.95;101803.97;5008636;28;20033;-79
2022/08/12 00:57:19;;;;;;;8.07;2.70;;;;;;;20.99;43.16;101804.19;5031404;28;20045;-78
2022/08/12 01:00:07;;;;;;;7.63;2.45;;;;;;;20.96;43.29;101804.34;5029287;28;20064;-79
2022/08/12 01:02:39;;;;;;;5.95;2.30;;;;;;;20.92;43.57;101813.53;5013431;28;20040;-79
2022/08/12 01:13:48;;;;;;;7.47;2.83;;;;;;;20.74;44.51;101812.63;4970118;28;20422;-79
2022/08/12 01:16:17;;;;;;;7.50;2.58;;;;;;;20.72;44.37;101811.81;5032310;28;20053;-79
2022/08/12 01:18:43;;;;;;;5.18;2.85;;;;;;;20.65;45.18;101811.28;5030031;28;20034;-79
2022/08/12 01:21:25;;;;;;;4.70;2.70;;;;;;;20.60;44.66;101807.94;5033443;28;20084;-79
2022/08/12 01:23:54;;;;;;;7.50;2.60;;;;;;;20.53;45.78;101809.16;5034691;28;20111;-79
2022/08/12 01:26:22;;;;;;;5.57;2.90;;;;;;;20.43;46.20;101806.03;5034899;28;20029;-79
2022/08/12 01:28:53;;;;;;;12.88;2.92;;;;;;;20.41;45.88;101803.41;5033586;28;20025;-78
2022/08/12 01:31:19;;;;;;;;;;;;;;;20.56;43.79;101809.88;5033968;28;20061;-79
2022/08/12 01:33:58;;;;;;;6.50;2.50;;;;;;;20.32;45.88;101808.34;5033191;28;19921;-79
2022/08/12 01:36:29;;;;;;;3.83;2.35;;;;;;;20.25;46.17;101807.78;5033733;28;20088;-79
2022/08/12 01:38:59;;;;;;;4.32;2.50;;;;;;;20.16;46.62;101805.50;5034487;28;20048;-79
2022/08/12 01:41:30;;;;;;;8.50;2.80;;;;;;;20.11;47.05;101799.47;5030503;28;20042;-79
2022/08/12 01:44:00;;;;;;;5.53;2.90;;;;;;;20.06;47.09;101801.50;5015988;28;20108;-79
2022/08/12 01:46:56;;;;;;;4.93;2.70;;;;;;;20.08;47.06;101803.19;5034701;28;20042;-78
2022/08/12 01:50:01;;;;;;;6.47;2.60;;;;;;;20.03;46.97;101807.00;5034605;28;20044;-78
2022/08/12 01:52:51;;;;;;;4.75;2.38;;;;;;;19.96;46.48;101801.91;5034196;28;20037;-79
2022/08/12 01:55:22;;;;;;;9.02;2.92;;;;;;;19.87;47.52;101802.34;5033134;28;20503;-79
2022/08/12 01:58:25;;;;;;;10.43;2.92;;;;;;;19.84;47.14;101797.09;5032763;28;20068;-79
2022/08/12 02:01:10;;;;;;;4.32;2.80;;;;;;;19.81;47.38;101793.69;5033092;28;20029;-79
2022/08/12 02:12:28;;;;;;;8.02;2.60;;;;;;;19.49;49.00;101791.47;5032281;28;20042;-79
2022/08/12 02:15:16;;;;;;;8.50;3.22;;;;;;;19.50;48.67;101792.34;5019789;28;20166;-79
2022/08/12 02:18:11;;;;;;;10.73;3.00;;;;;;;19.46;49.68;101786.25;5035850;28;20071;-79
2022/08/12 02:20:48;;;;;;;8.02;2.80;;;;;;;19.40;49.77;101789.19;5041735;28;20469;-79
2022/08/12 02:23:14;;;;;;;9.88;2.80;;;;;;;19.36;50.11;101790.25;5032347;28;20484;-79
2022/08/12 02:25:45;;;;;;;9.73;3.00;;;;;;;19.36;49.87;101790.25;5032616;28;20032;-79
2022/08/12 02:28:11;;;;;;;6.75;3.50;;;;;;;19.31;50.91;101790.47;5033603;28;20045;-79
2022/08/12 02:30:36;;;;;;;9.57;2.90;;;;;;;19.31;51.02;101789.56;5033574;28;20059;-79
2022/08/12 02:33:04;;;;;;;7.40;2.90;;;;;;;19.30;50.80;101787.84;5033100;28;20046;-79
2022/08/12 02:35:32;;;;;;;18.95;3.53;;;;;;;19.25;50.91;101788.03;5032292;28;20052;-79
2022/08/12 02:38:03;;;;;;;9.18;3.88;;;;;;;19.23;50.85;101783.66;5015496;28;20038;-80
2022/08/12 02:40:28;;;;;;;8.00;3.85;;;;;;;19.18;51.89;101775.81;5032644;28;20084;-79
2022/08/12 02:43:03;;;;;;;6.15;3.75;;;;;;;19.20;51.25;101784.66;5015499;28;20030;-79
2022/08/12 02:45:50;;;;;;;6.25;3.60;;;;;;;19.18;51.19;101781.19;5032272;28;20033;-79
2022/08/12 02:48:49;;;;;;;10.70;4.00;;;;;;;19.18;50.79;101781.19;5031870;28;20048;-79
2022/08/12 02:51:19;;;;;;;8.77;3.72;;;;;;;19.11;52.32;101779.69;5033303;28;20029;-79
2022/08/12 02:53:45;;;;;;;5.65;3.42;;;;;;;19.12;52.06;101781.44;5020879;28;20024;-79
2022/08/12 02:56:11;;;;;;;5.38;3.53;;;;;;;19.09;52.73;101786.97;5033424;28;20037;-79
2022/08/12 02:58:39;;;;;;;4.93;3.60;;;;;;;19.09;52.74;101781.59;5031803;28;20102;-79
2022/08/12 03:01:09;;;;;;;6.90;3.40;;;;;;;19.08;51.84;101775.31;5032036;28;20041;-79
2022/08/12 03:03:37;;;;;;;8.15;3.80;;;;;;;19.07;53.12;101778.09;5029679;28;20037;-79
2022/08/12 03:06:10;;;;;;;5.82;3.22;;;;;;;19.07;52.99;101776.28;5031729;28;20103;-79
2022/08/12 03:08:42;;;;;;;6.85;3.40;;;;;;;19.05;53.76;101788.00;5033424;28;20373;-79
2022/08/12 03:11:24;;;;;;;7.40;3.78;;;;;;;19.07;52.38;101778.09;5031644;28;20033;-79
2022/08/12 03:13:57;;;;;;;7.82;3.45;;;;;;;19.06;53.03;101777.19;5031605;28;20038;-79
2022/08/12 03:16:26;;;;;;;6.13;3.33;;;;;;;19.03;53.76;101777.34;5032962;28;20341;-78
2022/08/12 03:18:53;;;;;;;4.50;3.20;;;;;;;19.00;54.21;101780.16;5032656;28;20044;-79
2022/08/12 03:21:19;;;;;;;10.20;3.63;;;;;;;18.96;54.27;101774.97;5032740;28;20033;-79
2022/08/12 03:23:46;;;;;;;6.47;3.58;;;;;;;18.90;54.32;101774.28;5031424;28;20481;-79
2022/08/12 03:26:13;;;;;;;9.93;3.60;;;;;;;18.88;54.43;101776.16;5032707;28;20458;-79
2022/08/12 03:28:49;;;;;;;8.40;3.60;;;;;;;18.91;53.72;101772.47;5032577;28;20084;-79
2022/08/12 03:31:18;;;;;;;7.88;3.97;;;;;;;18.84;54.21;101773.66;5031068;28;20045;-79
2022/08/12 03:33:45;;;;;;;7.90;3.70;;;;;;;18.75;54.98;101764.19;5032381;28;20099;-79
2022/08/12 03:36:17;;;;;;;7.43;3.30;;;;;;;18.72;54.41;101772.34;5032548;28;20137;-79
2022/08/12 03:39:15;;;;;;;9.02;3.72;;;;;;;18.64;55.12;101761.94;5032572;28;20025;-79
2022/08/12 03:41:44;;;;;;;6.57;3.50;;;;;;;18.66;55.32;101761.84;5029385;28;20034;-79
2022/08/12 04:01:13;;;;;;;7.63;4.00;;;;;;;18.43;56.77;101762.81;5031046;28;20041;-78
2022/08/12 04:03:53;;;;;;;7.32;3.92;;;;;;;18.38;56.31;101779.06;5030727;28;20040;-79
2022/08/12 04:06:22;;;;;;;8.75;3.97;;;;;;;18.35;57.28;101775.66;5014425;28;20485;-79
2022/08/12 04:08:49;;;;;;;15.52;4.28;;;;;;;18.30;56.14;101788.34;5032164;28;20496;-79
2022/08/12 04:14:11;;;;;;;10.20;3.97;;;;;;;18.27;56.27;101782.19;5012353;28;20045;-79
2022/08/12 04:16:37;;;;;;;7.45;3.88;;;;;;;18.29;57.01;101781.25;5015945;28;20029;-79
2022/08/12 04:19:04;;;;;;;7.63;4.07;;;;;;;18.22;58.25;101778.81;5002387;28;20030;-79
2022/08/12 04:21:31;;;;;;;10.05;3.65;;;;;;;18.21;58.57;101781.53;4995153;28;20057;-79
2022/08/12 04:23:58;;;;;;;9.13;4.43;;;;;;;18.19;57.54;101778.91;5012975;28;20045;-79
2022/08/12 04:26:24;;;;;;;6.60;4.20;;;;;;;18.15;58.01;101782.66;5016298;28;20033;-79
2022/08/12 04:28:50;;;;;;;7.03;3.72;;;;;;;18.16;58.08;101787.06;5013483;28;20569;-79
2022/08/12 04:31:15;;;;;;;10.35;3.90;;;;;;;18.15;58.04;101782.66;5018631;28;20065;-79
2022/08/12 04:33:42;;;;;;;10.05;3.88;;;;;;;18.18;57.50;101782.53;5009716;28;20033;-79
2022/08/12 04:36:09;;;;;;;6.78;4.00;;;;;;;18.16;58.61;101779.03;4994867;28;20050;-79
2022/08/12 04:38:35;;;;;;;12.60;3.63;;;;;;;18.16;58.72;101787.06;5011689;28;20080;-79
2022/08/12 04:41:03;;;;;;;10.75;4.30;;;;;;;18.15;58.25;101784.44;4994252;28;20042;-79
2022/08/12 04:43:28;;;;;;;7.13;3.83;;;;;;;18.16;58.86;101783.53;5016075;28;20042;-79
2022/08/12 04:45:55;;;;;;;9.25;4.05;;;;;;;18.16;58.49;101783.53;5018874;28;20041;-79
2022/08/12 04:48:21;;;;;;;13.05;3.72;;;;;;;18.15;59.22;101777.31;5015822;28;20037;-79
2022/08/12 04:50:46;;;;;;;8.63;3.80;;;;;;;18.13;58.82;101786.34;5014035;28;20065;-79
2022/08/12 04:53:12;;;;;;;10.25;4.05;;;;;;;18.15;59.06;101782.66;5011357;28;20061;-79
2022/08/12 04:55:41;;;;;;;6.95;3.83;;;;;;;18.13;59.06;101789.03;5017659;28;20454;-79
2022/08/12 04:58:07;;;;;;;9.13;3.80;;;;;;;18.11;59.42;101789.06;5018048;28;20030;-79
2022/08/12 05:00:34;;;;;;;6.28;3.72;;;;;;;18.13;59.10;101789.03;5020935;28;20033;-79
2022/08/12 05:02:59;;;;;;;7.53;4.10;;;;;;;18.14;59.19;101788.06;5017639;28;20033;-79
2022/08/12 05:05:28;;;;;;;8.27;3.83;;;;;;;18.15;59.47;101785.34;5002475;28;20457;-79
2022/08/12 05:07:54;;;;;;;9.52;4.30;;;;;;;18.17;59.40;101778.09;5016407;28;20044;-79
2022/08/12 05:10:22;;;;;;;7.18;3.63;;;;;;;18.23;59.14;101782.38;5018854;28;20033;-79
2022/08/12 05:12:55;;;;;;;8.38;4.07;;;;;;;18.27;58.93;101792.91;5015304;28;20046;-79
2022/08/12 05:15:21;;;;;;;10.35;4.75;;;;;;;18.30;60.20;101780.28;5026311;28;20117;-79
2022/08/12 05:17:46;;;;;;;8.20;3.97;;;;;;;18.36;59.58;101780.06;5033896;28;20179;-79
2022/08/12 05:20:15;;;;;;;6.68;4.03;;;;;;;18.44;59.01;101780.63;5025864;28;20033;-87
2022/08/12 05:22:44;;;;;;;8.00;4.30;;;;;;;18.48;58.92;101777.78;5040620;28;20374;-86
2022/08/12 05:25:11;;;;;;;6.32;4.50;;;;;;;18.54;59.41;101776.63;5040288;28;20036;-84
2022/08/12 05:27:38;;;;;;;7.18;5.10;;;;;;;18.59;59.28;101776.47;5030826;28;20045;-84
2022/08/12 05:30:05;;;;;;;8.23;4.75;;;;;;;18.64;58.94;101774.47;5028799;28;20064;-84
2022/08/12 05:32:30;;;;;;;14.43;5.25;;;;;;;18.73;58.25;101783.97;5015189;28;20041;-85
2022/08/12 05:34:56;;;;;;;14.75;5.10;;;;;;;18.79;57.68;101781.03;5023865;28;20092;-84
2022/08/12 05:37:22;;;;;;;10.43;5.50;;;;;;;18.86;58.88;101783.41;5022424;28;20025;-84
2022/08/12 05:39:48;;;;;;;9.75;5.32;;;;;;;18.91;58.66;101789.44;5022405;28;20543;-84
2022/08/12 05:42:13;;;;;;;10.60;4.93;;;;;;;19.00;58.36;101790.03;5022306;28;20053;-84
2022/08/12 05:44:39;;;;;;;18.65;5.53;;;;;;;19.05;58.47;101790.69;5021345;28;20104;-85
2022/08/12 05:47:05;;;;;;;10.38;5.57;;;;;;;19.12;58.09;101795.75;5016479;28;20036;-84
2022/08/12 05:49:33;;;;;;;15.75;5.78;;;;;;;19.21;57.61;101793.59;5022861;28;20042;-84
2022/08/12 05:51:59;;;;;;;12.68;5.82;;;;;;;19.30;57.32;101801.25;5031721;28;20049;-84
2022/08/12 05:54:25;;;;;;;11.05;5.65;;;;;;;19.36;57.74;101800.13;5026697;28;20096;-84
2022/08/12 05:56:50;;;;;;;14.70;5.38;;;;;;;19.43;56.77;101804.28;5028838;28;20124;-85
2022/08/12 05:59:16;;;;;;;13.93;6.05;;;;;;;19.50;56.69;101798.56;5033710;28;20116;-86
2022/08/12 06:01:42;;;;;;;12.10;5.97;;;;;;;19.57;56.38;101799.19;4986714;28;20045;-85
2022/08/12 06:04:08;;;;;;;12.45;5.75;;;;;;;19.62;56.55;101790.91;5038670;28;20035;-85
2022/08/12 06:06:40;;;;;;;13.45;6.18;;;;;;;19.75;55.85;101800.19;5023750;28;20093;-85
2022/08/12 06:09:10;;;;;;;13.75;5.47;;;;;;;19.85;55.66;101797.97;5013883;28;20099;-85
2022/08/12 06:11:40;;;;;;;16.40;5.93;;;;;;;19.93;55.94;101803.84;5042486;28;20041;-85
2022/08/12 06:14:05;;;;;;;16.00;6.30;;;;;;;20.05;55.63;101805.13;5018544;28;20401;-85
2022/08/12 06:16:32;;;;;;;9.63;6.18;;;;;;;20.11;55.29;101807.53;5043366;28;20366;-85
2022/08/12 06:18:57;;;;;;;17.25;5.00;;;;;;;20.23;54.12;101808.75;5023554;28;20507;-84
2022/08/12 06:21:23;;;;;;;12.80;5.90;;;;;;;20.31;55.11;101810.16;5034123;28;20041;-84
2022/08/12 06:23:50;;;;;;;13.85;6.20;;;;;;;20.40;54.86;101807.03;5016916;28;20141;-84
2022/08/12 06:26:19;;;;;;;10.18;5.88;;;;;;;20.52;53.83;101802.88;5045084;28;20061;-84
2022/08/12 06:28:47;;;;;;;12.55;5.80;;;;;;;20.62;54.67;101806.00;5043246;28;21076;-84
2022/08/12 06:31:15;;;;;;;13.50;6.43;;;;;;;20.72;54.23;101804.66;5045771;28;20049;-84
2022/08/12 06:33:43;;;;;;;9.63;6.00;;;;;;;20.82;54.01;101796.97;5037780;28;20053;-84
2022/08/12 06:36:17;;;;;;;16.10;6.32;;;;;;;20.91;53.17;101799.19;5029110;28;20029;-84
2022/08/12 06:38:44;;;;;;;8.30;5.43;;;;;;;21.02;53.21;101798.69;5032201;28;20447;-84
2022/08/12 06:43:55;;;;;;;12.82;6.63;;;;;;;21.20;53.24;101803.13;5029109;28;20122;-84
2022/08/12 06:46:27;;;;;;;13.75;6.60;;;;;;;21.29;52.86;101793.72;5022265;28;20017;-84
2022/08/12 06:48:57;;;;;;;9.48;5.53;;;;;;;21.42;52.09;101796.66;5030553;28;20036;-82
2022/08/12 06:51:28;;;;;;;20.50;6.47;;;;;;;21.50;52.70;101793.56;5023456;28;20138;-84
2022/08/12 06:53:54;;;;;;;;;;;;;;;21.62;52.08;101803.69;5039040;28;20064;-84
2022/08/12 06:56:20;;;;;;;13.20;6.43;;;;;;;21.68;51.74;101797.97;5029350;28;20377;-84
2022/08/12 06:58:46;;;;;;;14.55;7.03;;;;;;;21.78;51.74;101803.75;5033370;28;20033;-83
2022/08/12 07:01:11;;;;;;;12.75;6.47;;;;;;;21.91;52.17;101799.44;5025327;28;20068;-85
2022/08/12 07:03:37;;;;;;;14.45;6.22;;;;;;;22.01;49.76;101802.50;5031529;28;20098;-85
2022/08/12 07:06:06;;;;;;;13.50;6.38;;;;;;;22.08;50.70;101795.78;5035636;28;20114;-84
2022/08/12 07:08:33;;;;;;;14.57;7.15;;;;;;;22.17;50.73;101799.81;5031833;28;20496;-85
2022/08/12 07:11:05;;;;;;;20.77;6.95;;;;;;;22.27;50.13;101795.69;5049433;28;20396;-84
2022/08/12 07:13:42;;;;;;;17.13;6.60;;;;;;;22.36;50.03;101783.53;5052654;28;20064;-85
2022/08/12 07:16:10;;;;;;;14.73;7.00;;;;;;;22.49;49.90;101787.25;5038526;28;20036;-85
2022/08/12 07:18:36;;;;;;;12.88;6.03;;;;;;;22.60;49.63;101786.63;5051647;28;20035;-85
2022/08/12 07:21:04;;;;;;;18.35;7.10;;;;;;;22.72;49.32;101789.53;5035876;28;20048;-85
2022/08/12 07:23:32;;;;;;;13.98;6.80;;;;;;;22.84;49.29;101789.75;5031290;28;20034;-85
2022/08/12 07:26:00;;;;;;;14.93;6.90;;;;;;;23.01;48.69;101792.34;5032722;28;20175;-85
2022/08/12 07:28:28;;;;;;;11.75;7.15;;;;;;;23.11;49.20;101801.66;5038711;28;20041;-85
2022/08/12 07:30:55;;;;;;;11.30;6.20;;;;;;;23.25;48.84;101794.56;5035852;28;20053;-85
2022/08/12 07:33:29;;;;;;;12.48;6.57;;;;;;;23.37;47.81;101804.66;5043452;28;20033;-85
2022/08/12 07:35:57;;;;;;;15.93;6.60;;;;;;;23.49;47.64;101801.19;5027714;28;20029;-85
2022/08/12 07:38:32;;;;;;;14.10;6.20;;;;;;;23.62;47.33;101801.31;5023308;28;20084;-85
2022/08/12 07:41:17;;;;;;;12.88;6.30;;;;;;;23.79;47.33;101809.28;5031408;28;20540;-85
2022/08/12 07:43:48;;;;;;;18.63;6.40;;;;;;;23.94;47.12;101810.16;5023396;28;20018;-85
2022/08/12 07:46:19;;;;;;;13.05;6.53;;;;;;;24.11;47.06;101805.50;5026546;28;20549;-85
2022/08/12 07:48:56;;;;;;;9.77;5.85;;;;;;;24.25;46.95;101805.47;5028677;28;20103;-84
2022/08/12 07:51:23;;;;;;;15.57;5.50;;;;;;;24.39;45.78;101804.59;5020179;28;20080;-85
2022/08/12 07:53:49;;;;;;;13.02;5.90;;;;;;;24.56;45.47;101809.81;5031778;28;20457;-85
2022/08/12 07:56:16;;;;;;;16.80;6.40;;;;;;;24.67;44.46;101814.53;5031585;28;20075;-85
2022/08/12 07:58:42;;;;;;;18.02;5.78;;;;;;;24.76;43.89;101808.50;5044816;28;20472;-85
2022/08/12 08:01:20;;;;;;;14.07;5.45;;;;;;;24.89;43.76;101806.69;5031661;28;20528;-86
2022/08/12 08:06:35;;;;;;;8.35;4.53;;;;;;;25.28;42.82;101815.00;5034392;28;20033;-84
2022/08/12 08:09:03;;;;;;;16.35;5.25;;;;;;;25.39;42.04;101804.25;5029870;28;20036;-86
2022/08/12 08:14:13;;;;;;;11.00;5.28;;;;;;;25.60;43.22;101807.34;5025760;28;20472;-87
2022/08/12 08:16:41;;;;;;;10.10;4.70;;;;;;;25.75;42.31;101808.09;5010436;28;20070;-87
2022/08/12 08:19:18;;;;;;;14.75;4.70;;;;;;;25.94;41.98;101818.56;5027899;28;20036;-87
2022/08/12 08:21:44;;;;;;;10.35;4.50;;;;;;;26.06;40.24;101814.06;5024413;28;20503;-89
2022/08/12 08:24:15;;;;;;;16.38;4.40;;;;;;;26.16;39.34;101816.03;5030799;28;20049;-87
2022/08/12 08:26:46;;;;;;;10.48;4.80;;;;;;;26.27;39.28;101814.38;5043072;28;20041;-88
2022/08/12 08:29:13;;;;;;;8.48;3.95;;;;;;;26.37;38.06;101823.59;5036434;28;20434;-86
2022/08/12 08:31:44;;;;;;;19.60;4.63;;;;;;;26.42;37.52;101815.09;5038949;28;20041;-85
2022/08/12 08:34:11;;;;;;;9.80;4.72;;;;;;;26.50;37.32;101824.41;5041573;28;20110;-85
2022/08/12 08:36:38;;;;;;;11.38;4.35;;;;;;;26.62;37.13;101824.53;5042426;28;20037;-86
2022/08/12 08:39:05;;;;;;;15.13;4.22;;;;;;;26.74;36.96;101815.47;5028963;28;20448;-88
2022/08/12 08:44:15;;;;;;;8.23;4.22;;;;;;;27.03;37.04;101816.84;5033761;28;20069;-86
2022/08/12 08:46:43;;;;;;;10.38;4.20;;;;;;;27.14;36.36;101812.44;5034693;28;20136;-87
2022/08/12 08:49:09;;;;;;;12.82;4.65;;;;;;;27.22;36.40;101815.44;5018336;28;20034;-87
2022/08/12 08:51:36;;;;;;;9.65;4.43;;;;;;;27.32;36.47;101808.31;5011211;28;20101;-86
2022/08/12 08:54:01;;;;;;;17.63;4.50;;;;;;;27.42;36.10;101817.53;5034606;28;20496;-87
2022/08/12 08:56:29;;;;;;;13.77;4.53;;;;;;;27.55;35.52;101814.69;5034086;28;20037;-86
2022/08/12 08:58:56;;;;;;;15.38;4.50;;;;;;;27.66;34.98;101822.00;5000445;28;20033;-86
2022/08/12 09:01:22;;;;;;;17.55;4.55;;;;;;;27.76;34.90;101812.13;5026355;28;20493;-88
2022/08/12 09:03:48;;;;;;;12.45;4.38;;;;;;;27.87;34.42;101819.50;5036523;28;20112;-86
2022/08/12 09:06:14;;;;;;;14.73;3.80;;;;;;;28.03;34.88;101816.38;5040185;28;20112;-86
2022/08/12 09:08:41;;;;;;;8.07;4.25;;;;;;;28.22;34.38;101807.59;5017359;28;20137;-88
2022/08/12 09:13:50;;;;;;;11.50;3.70;;;;;;;28.46;33.27;101811.06;5038250;28;20052;-86
2022/08/12 09:16:16;;;;;;;17.58;4.35;;;;;;;28.51;33.14;101806.09;5019192;28;20481;-87
2022/08/12 09:18:42;;;;;;;14.50;4.30;;;;;;;28.66;34.14;101812.16;5033673;28;20048;-86
2022/08/12 09:21:08;;;;;;;16.40;4.65;;;;;;;28.82;33.81;101806.25;5016581;28;20025;-86
2022/08/12 09:23:38;;;;;;;11.00;3.90;;;;;;;29.02;33.41;101803.72;5016396;28;20034;-87
2022/08/12 09:26:04;;;;;;;12.37;4.00;;;;;;;29.24;33.33;101809.09;5035650;28;20422;-86
2022/08/12 09:28:31;;;;;;;11.90;4.30;;;;;;;29.44;33.09;101801.06;5033875;28;20041;-87
2022/08/12 09:30:58;;;;;;;9.40;4.13;;;;;;;29.55;33.09;101814.59;5016660;28;20554;-84
2022/08/12 09:33:32;;;;;;;20.17;4.43;;;;;;;29.66;31.98;101808.25;5032906;28;20164;-87
2022/08/12 09:35:58;;;;;;;13.75;4.47;;;;;;;29.66;31.50;101800.06;5035035;28;20025;-86
2022/08/12 09:38:24;;;;;;;8.40;3.45;;;;;;;29.71;31.35;101804.13;5037759;28;20072;-85
2022/08/12 09:40:50;;;;;;;15.90;4.10;;;;;;;29.83;31.44;101804.06;5039581;28;20076;-86
2022/08/12 09:46:01;;;;;;;12.40;3.97;;;;;;;30.14;30.57;101791.22;5018687;28;20062;-87
2022/08/12 09:48:27;;;;;;;10.60;3.08;;;;;;;30.28;30.24;101795.50;5033123;28;20098;-88
2022/08/12 09:50:53;;;;;;;7.68;3.55;;;;;;;30.38;30.12;101799.97;5026585;28;20395;-87
2022/08/12 09:53:23;;;;;;;10.73;3.33;;;;;;;30.46;28.64;101784.75;5013773;28;20053;-86
2022/08/12 09:55:53;;;;;;;;;;;;;;;30.57;30.91;101788.22;5047914;28;20034;-87
2022/08/12 09:58:27;;;;;;;8.73;3.30;;;;;;;30.65;28.32;101784.78;5027695;28;19919;-87
2022/08/12 10:01:01;;;;;;;10.13;3.13;;;;;;;30.90;29.31;101775.19;5016025;28;20025;-87
2022/08/12 10:03:32;;;;;;;8.98;3.05;;;;;;;31.09;28.37;101776.19;5007639;28;20025;-86
2022/08/12 10:05:59;;;;;;;13.85;3.42;;;;;;;31.14;26.94;101780.22;5033577;28;20033;-87
2022/08/12 10:08:29;;;;;;;9.25;2.65;;;;;;;31.13;27.29;101763.94;5023584;28;20045;-87
2022/08/12 10:13:40;;;;;;;13.77;2.90;;;;;;;31.39;27.30;101766.97;5022693;28;20042;-87
2022/08/12 10:16:18;;;;;;;7.60;2.60;;;;;;;31.42;26.64;101762.03;5030367;28;20052;-87
2022/08/12 10:19:01;;;;;;;11.75;2.55;;;;;;;31.46;26.84;101763.50;5031284;28;20025;-89
2022/08/12 10:21:37;;;;;;;6.97;2.80;;;;;;;31.62;26.16;101762.84;5028651;28;20034;-87
2022/08/12 10:24:03;;;;;;;9.05;2.65;;;;;;;31.76;26.32;101757.94;5027376;28;20030;-87
2022/08/12 10:31:59;;;;;;;6.00;2.53;;;;;;;32.13;24.23;101753.31;5029933;28;20186;-87
2022/08/12 10:34:25;;;;;;;4.80;2.47;;;;;;;32.21;24.78;101747.06;5027723;28;20033;-88
2022/08/12 10:36:54;;;;;;;14.18;2.80;;;;;;;32.31;25.24;101753.34;5024696;28;20032;-87
2022/08/12 10:39:22;;;;;;;8.77;2.97;;;;;;;32.34;23.25;101749.41;5021898;28;20041;-88
2022/08/12 10:44:32;;;;;;;5.78;2.55;;;;;;;32.42;23.43;101741.31;5016790;28;20121;-89
2022/08/12 10:46:58;;;;;;;5.60;2.33;;;;;;;32.54;22.89;101730.97;5038414;28;20037;-86
2022/08/12 10:49:30;;;;;;;10.30;2.45;;;;;;;32.62;23.08;101731.09;5035280;28;20051;-89
2022/08/12 10:51:56;;;;;;;11.43;2.70;;;;;;;32.71;23.43;101721.91;5026317;28;20422;-87
2022/08/12 10:54:26;;;;;;;10.18;2.70;;;;;;;32.77;23.53;101715.78;5007267;28;20396;-87
2022/08/12 10:56:52;;;;;;;5.28;2.40;;;;;;;32.87;23.18;101717.59;5033363;28;20039;-87
2022/08/12 10:59:20;;;;;;;10.75;2.78;;;;;;;32.94;22.40;101716.81;5042084;28;20091;-88
2022/08/12 11:01:48;;;;;;;4.55;2.13;;;;;;;33.02;22.19;101713.25;5015432;28;20075;-88
2022/08/12 11:04:30;;;;;;;8.57;2.50;;;;;;;33.16;22.42;101711.81;5013216;28;20041;-87
2022/08/12 11:06:57;;;;;;;6.63;2.25;;;;;;;33.22;22.48;101713.09;5024038;28;20044;-86
2022/08/12 11:09:30;;;;;;;10.30;2.60;;;;;;;33.29;22.90;101709.53;5007079;28;20029;-87
2022/08/12 11:11:58;;;;;;;6.97;2.53;;;;;;;33.51;22.39;101710.03;5011556;28;20025;-88
2022/08/12 11:14:30;;;;;;;11.93;2.55;;;;;;;33.43;21.55;101708.06;5005509;28;20214;-89
2022/08/12 11:17:00;;;;;;;7.57;2.40;;;;;;;33.34;22.08;101700.81;5015025;28;20100;-87
2022/08/12 11:19:26;;;;;;;;;;;;;;;33.52;22.99;101700.75;5016021;28;21475;-88
2022/08/12 11:21:54;;;;;;;6.78;2.40;;;;;;;33.41;21.74;101682.69;5024984;28;19921;-88
2022/08/12 11:24:23;;;;;;;9.18;2.80;;;;;;;33.70;21.32;101690.56;5016454;28;20096;-86
2022/08/12 11:26:49;;;;;;;10.48;2.25;;;;;;;33.80;21.22;101699.56;5025795;28;20034;-88
2022/08/12 11:29:20;;;;;;;10.80;2.50;;;;;;;33.84;21.39;101694.56;5010343;28;20381;-87
2022/08/12 11:31:45;;;;;;;9.00;2.50;;;;;;;34.00;21.40;101686.41;5014567;28;20042;-87
2022/08/12 11:34:11;;;;;;;8.07;2.55;;;;;;;34.02;20.93;101687.06;5031149;28;20556;-88
2022/08/12 11:36:37;;;;;;;8.40;2.40;;;;;;;34.22;20.88;101679.44;5001853;28;20033;-88
2022/08/12 11:39:04;;;;;;;6.18;2.13;;;;;;;34.49;21.46;101671.91;5030991;28;20061;-88
2022/08/12 11:41:29;;;;;;;6.45;2.38;;;;;;;34.58;21.11;101676.38;5031276;28;20543;-88
2022/08/12 11:43:55;;;;;;;11.00;2.50;;;;;;;34.40;20.46;101675.69;4997866;28;20033;-88
2022/08/12 11:46:20;;;;;;;9.52;2.83;;;;;;;34.60;21.35;101670.75;5013470;28;20069;-88
2022/08/12 11:48:46;;;;;;;9.35;2.58;;;;;;;34.68;20.75;101673.50;4997261;28;20026;-88
2022/08/12 11:51:12;;;;;;;10.23;2.65;;;;;;;34.60;20.58;101670.75;5026555;28;20389;-86
2022/08/12 11:53:37;;;;;;;8.15;3.08;;;;;;;34.64;20.42;101661.97;5044739;28;20401;-88
2022/08/12 11:56:07;;;;;;;8.25;2.67;;;;;;;34.65;20.86;101663.69;5022155;28;20494;-88
2022/08/12 11:58:33;;;;;;;12.93;3.08;;;;;;;34.75;21.02;101660.78;5032271;28;20049;-89
2022/08/12 12:00:59;;;;;;;7.32;2.53;;;;;;;35.14;21.59;101665.59;5030319;28;20547;-88
2022/08/12 12:03:25;;;;;;;7.75;2.92;;;;;;;35.35;19.61;101666.91;5013903;28;20022;-88
2022/08/12 12:05:51;;;;;;;8.32;2.60;;;;;;;35.48;20.22;101659.78;5013683;28;20064;-89
2022/08/12 12:08:24;;;;;;;8.43;2.42;;;;;;;35.63;20.74;101648.06;5039088;28;20068;-89
2022/08/12 12:10:51;;;;;;;8.15;2.42;;;;;;;35.63;19.33;101654.41;5033796;28;20067;-89
2022/08/12 12:13:17;;;;;;;7.25;2.72;;;;;;;35.73;19.20;101646.81;5050700;28;20028;-89
2022/08/12 12:15:44;;;;;;;9.82;2.90;;;;;;;35.68;19.36;101648.38;5036771;28;20033;-89
2022/08/12 12:18:30;;;;;;;10.65;2.67;;;;;;;35.92;20.38;101641.88;4994200;28;20486;-89
2022/08/12 12:20:58;;;;;;;9.23;2.80;;;;;;;35.73;19.27;101644.06;5025141;28;20473;-90
2022/08/12 12:23:23;;;;;;;9.60;2.60;;;;;;;36.04;19.98;101636.81;5020643;28;20029;-90
2022/08/12 12:25:49;;;;;;;6.55;2.30;;;;;;;36.33;20.04;101631.47;5017435;28;20378;-89
2022/08/12 12:28:16;;;;;;;6.13;2.58;;;;;;;36.45;18.79;101631.03;5029011;28;20460;-89
2022/08/12 12:30:42;;;;;;;4.90;2.40;;;;;;;36.46;17.90;101639.13;5030275;28;20079;-89
2022/08/12 12:33:09;;;;;;;9.02;2.67;;;;;;;36.33;17.98;101633.38;5013893;28;21725;-87
2022/08/12 12:35:35;;;;;;;4.57;2.88;;;;;;;36.67;19.74;101629.31;5015217;28;20041;-89
2022/08/12 12:38:02;;;;;;;6.50;2.03;;;;;;;36.87;20.22;101632.41;5047255;28;20361;-90
2022/08/12 12:40:29;;;;;;;10.50;2.45;;;;;;;36.93;18.35;101613.19;5051107;28;20033;-89
2022/08/12 12:42:55;;;;;;;7.90;2.35;;;;;;;37.10;18.26;101621.34;5039040;28;20620;-89
2022/08/12 12:45:21;;;;;;;11.93;2.70;;;;;;;37.25;18.00;101622.19;5028377;28;20481;-88
2022/08/12 12:47:59;;;;;;;11.32;2.63;;;;;;;37.33;17.97;101615.69;5042712;28;20041;-88
2022/08/12 12:50:27;;;;;;;14.40;2.60;;;;;;;37.36;17.21;101620.84;5051128;28;20147;-91
2022/08/12 12:52:53;;;;;;;7.72;2.25;;;;;;;37.30;17.35;101621.63;5051033;28;20037;-89
2022/08/12 12:55:21;;;;;;;7.07;2.72;;;;;;;37.19;17.81;101611.88;5050826;28;20028;-89
2022/08/12 12:57:47;;;;;;;11.05;2.72;;;;;;;36.78;17.11;101612.31;5034745;28;20045;-90
2022/08/12 13:00:14;;;;;;;9.02;2.42;;;;;;;36.86;18.24;101614.97;5050907;28;20044;-88
2022/08/12 13:02:55;;;;;;;4.35;2.28;;;;;;;37.10;18.56;101604.75;5027174;28;20033;-90
2022/08/12 13:05:28;;;;;;;6.40;2.40;;;;;;;37.12;17.67;101602.66;5031448;28;20042;-93
2022/08/12 13:07:56;;;;;;;4.68;2.30;;;;;;;37.51;18.56;101601.47;5036384;28;20044;-91
2022/08/12 13:10:24;;;;;;;9.73;2.70;;;;;;;37.65;17.45;101595.09;5051026;28;20056;-91
2022/08/12 13:12:50;;;;;;;14.77;2.95;;;;;;;37.90;18.72;101597.50;5050821;28;20056;-89
2022/08/12 13:15:16;;;;;;;5.97;2.20;;;;;;;38.18;17.82;101592.97;5034739;28;20418;-89
2022/08/12 13:17:49;;;;;;;12.10;2.67;;;;;;;38.16;16.94;101586.78;5022017;28;20049;-89
2022/08/12 13:20:20;;;;;;;6.32;2.45;;;;;;;38.41;17.01;101587.22;5042640;28;20048;-90